createdAt,value
2022-08-19T00:01:53.406Z,66.8
2022-08-19T00:03:54.340Z,68.3
2022-08-19T00:05:58.449Z,91
2022-08-19T00:07:01.996Z,99.6
2022-08-19T00:09:06.135Z,99.8
2022-08-19T00:11:10.215Z,99.8
2022-08-19T00:13:14.294Z,99.8
2022-08-19T00:15:21.433Z,99.8
2022-08-19T00:17:25.546Z,99.8
2022-08-19T00:19:29.627Z,99.9
2022-08-19T00:21:33.728Z,99.9
2022-08-19T00:23:37.839Z,99.9
2022-08-19T00:25:41.934Z,99.9
2022-08-19T00:27:46.043Z,99.9
2022-08-19T00:29:53.197Z,99.9
2022-08-19T00:31:57.282Z,99.9
2022-08-19T00:34:01.452Z,99.9
2022-08-19T00:36:05.492Z,99.9
2022-08-19T00:40:13.879Z,99.9
2022-08-19T00:42:17.777Z,99.9
2022-08-19T00:44:26.811Z,99.9
2022-08-19T00:46:29.019Z,99.9
2022-08-19T00:48:33.147Z,99.9
2022-08-19T00:50:37.217Z,99.9
2022-08-19T00:52:41.307Z,99.9
2022-08-19T00:54:48.654Z,99.9
2022-08-19T00:56:49.543Z,99.9
2022-08-19T01:03:04.863Z,99.9
2022-08-19T01:04:08.416Z,99.9
2022-08-19T01:06:12.497Z,99.9
2022-08-19T01:08:16.605Z,1
2022-08-19T01:10:20.779Z,1
2022-08-19T01:12:27.834Z,1
2022-08-19T01:14:31.923Z,1
2022-08-19T01:16:36.035Z,1
2022-08-19T01:18:40.142Z,1
2022-08-19T01:20:44.229Z,35.6
2022-08-19T01:22:48.403Z,44.9
2022-08-19T01:26:59.566Z,99.8
2022-08-19T01:29:05.158Z,99.8
2022-08-19T01:31:08.215Z,99.8
2022-08-19T01:33:11.847Z,99.8
2022-08-19T01:45:39.472Z,99.9
2022-08-19T01:47:43.584Z,99.9
2022-08-19T01:49:47.686Z,99.9
2022-08-19T01:58:07.078Z,99.9
2022-08-19T02:00:11.201Z,99.9
2022-08-19T02:04:37.738Z,64.1
2022-08-19T02:10:53.066Z,1
2022-08-19T02:12:57.166Z,1
2022-08-19T02:19:09.463Z,1
2022-08-19T02:23:20.686Z,1
2022-08-19T02:25:24.820Z,1
2022-08-19T02:29:32.997Z,1
2022-08-19T02:31:37.102Z,25.3
2022-08-19T02:39:56.553Z,1
2022-08-19T02:46:08.264Z,38.6
2022-08-19T02:50:16.463Z,40.4
2022-08-19T02:54:27.695Z,99.8
2022-08-19T02:56:31.804Z,99.8
2022-08-19T02:59:39.460Z,99.8
2022-08-19T03:03:47.642Z,99.8
2022-08-19T03:05:56.962Z,99.9
2022-08-19T03:07:58.848Z,99.9
2022-08-19T03:12:07.032Z,99.9
2022-08-19T03:14:11.151Z,99.9
2022-08-19T03:18:19.338Z,1
2022-08-19T03:20:26.459Z,1
2022-08-19T03:30:46.989Z,99.6
2022-08-19T03:34:58.207Z,99.8
2022-08-19T03:45:18.717Z,1
2022-08-19T03:49:29.943Z,1
2022-08-19T03:53:38.108Z,69.1
2022-08-19T03:54:43.241Z,99.6
2022-08-19T03:56:47.300Z,99.8
2022-08-19T04:03:02.836Z,99.8
2022-08-19T04:05:06.716Z,99.8
2022-08-19T04:07:10.808Z,99.9
2022-08-19T04:11:18.997Z,99.9
2022-08-19T04:13:23.095Z,99.9
2022-08-19T04:15:27.208Z,99.9
2022-08-19T04:19:38.392Z,99.9
2022-08-19T04:23:46.593Z,99.9
2022-08-19T04:25:50.671Z,99.9
2022-08-19T04:29:58.893Z,99.9
2022-08-19T04:34:10.105Z,99.9
2022-08-19T04:38:18.290Z,99.9
2022-08-19T04:40:22.361Z,99.9
2022-08-19T04:42:30.683Z,99.9
2022-08-19T04:44:30.564Z,99.9
2022-08-19T04:46:39.988Z,99.9
2022-08-19T04:48:44.152Z,99.9
2022-08-19T04:50:45.866Z,99.9
2022-08-19T04:51:49.413Z,99.9
2022-08-19T04:55:57.598Z,99.9
2022-08-19T04:58:01.706Z,99.9
2022-08-19T05:00:08.788Z,99.9
2022-08-19T05:04:16.969Z,99.9
2022-08-19T05:06:29.819Z,99.9
2022-08-19T05:08:30.732Z,99.9
2022-08-19T05:10:29.273Z,99.9
2022-08-19T05:12:33.345Z,99.9
2022-08-19T05:18:48.655Z,99.9
2022-08-19T05:22:56.812Z,99.9
2022-08-19T05:25:11.754Z,99.9
2022-08-19T05:29:12.104Z,99.9
2022-08-19T05:33:20.280Z,99.9
2022-08-19T05:37:28.529Z,99.9
2022-08-19T05:41:36.667Z,19.6
2022-08-19T05:45:47.882Z,1
2022-08-19T05:47:51.971Z,99.6
2022-08-19T05:50:16.510Z,93.5
2022-08-19T05:52:25.984Z,65.3
2022-08-19T05:54:24.697Z,1
2022-08-19T05:56:31.823Z,1
2022-08-19T05:58:35.911Z,99.6
2022-08-19T06:00:40.014Z,99.8
2022-08-19T06:02:44.146Z,99.8
2022-08-19T06:04:48.218Z,99.8
2022-08-19T06:06:52.312Z,99.8
2022-08-19T06:08:56.488Z,99.8
2022-08-19T06:15:11.722Z,99.9
2022-08-19T06:17:15.804Z,99.9
2022-08-19T06:19:19.918Z,99.9
2022-08-19T06:21:24.004Z,99.9
2022-08-19T06:23:28.103Z,99.9
2022-08-19T06:25:35.230Z,99.9
2022-08-19T06:27:48.303Z,99.9
2022-08-19T06:29:43.435Z,99.9
2022-08-19T06:33:51.649Z,99.9
2022-08-19T06:35:55.775Z,99.9
2022-08-19T06:37:59.867Z,99.9
2022-08-19T06:40:07.081Z,99.9
2022-08-19T06:42:11.267Z,99.9
2022-08-19T06:44:15.184Z,99.9
2022-08-19T06:45:18.744Z,99.9
2022-08-19T06:47:23.991Z,99.9
2022-08-19T06:49:26.986Z,12.4
2022-08-19T06:55:44.320Z,1
2022-08-19T06:59:50.495Z,1
2022-08-19T07:06:02.838Z,1
2022-08-19T07:08:09.960Z,1
2022-08-19T07:10:14.061Z,1
2022-08-19T07:12:18.150Z,1
2022-08-19T07:14:22.255Z,1
2022-08-19T07:16:28.996Z,1
2022-08-19T07:18:30.465Z,1
2022-08-19T07:20:34.584Z,1
2022-08-19T07:22:41.719Z,1
2022-08-19T07:24:51.531Z,1
2022-08-19T07:26:51.851Z,1
2022-08-19T07:28:54.020Z,1
2022-08-19T07:30:58.131Z,1
2022-08-19T07:33:03.369Z,1
2022-08-19T07:35:06.345Z,1
2022-08-19T07:37:13.450Z,1
2022-08-19T07:39:17.564Z,1
2022-08-19T07:41:21.655Z,1
2022-08-19T07:42:25.230Z,1
2022-08-19T07:44:29.354Z,1
2022-08-19T07:46:33.433Z,1
2022-08-19T07:48:37.520Z,1
2022-08-19T07:50:44.664Z,1
2022-08-19T07:52:49.031Z,1
2022-08-19T07:54:52.822Z,1
2022-08-19T07:56:56.963Z,1
2022-08-19T07:59:01.043Z,1
2022-08-19T08:01:05.148Z,1
2022-08-19T08:03:13.135Z,1
2022-08-19T08:05:16.333Z,1
2022-08-19T08:07:20.445Z,1
2022-08-19T08:09:24.528Z,1
2022-08-19T08:11:28.612Z,1
2022-08-19T08:13:32.725Z,1
2022-08-19T08:15:41.529Z,1
2022-08-19T08:17:49.702Z,1
2022-08-19T08:19:48.023Z,1
2022-08-19T08:21:52.110Z,1
2022-08-19T08:23:56.345Z,1
2022-08-19T08:26:00.274Z,1
2022-08-19T08:28:04.360Z,1
2022-08-19T08:30:08.494Z,1
2022-08-19T08:32:14.839Z,1
2022-08-19T08:34:19.656Z,1
2022-08-19T08:36:23.764Z,1
2022-08-19T08:38:28.272Z,1
2022-08-19T08:39:31.478Z,1
2022-08-19T08:43:39.558Z,1
2022-08-19T08:45:43.626Z,1
2022-08-19T08:47:50.761Z,1
2022-08-19T08:49:54.844Z,1
2022-08-19T08:52:00.073Z,1
2022-08-19T08:56:07.069Z,1
2022-08-19T09:02:22.343Z,1
2022-08-19T09:06:30.502Z,1
2022-08-19T09:10:44.354Z,1
2022-08-19T09:12:43.057Z,1
2022-08-19T09:14:50.649Z,1
2022-08-19T09:16:53.913Z,1
2022-08-19T09:18:57.981Z,1
2022-08-19T09:21:02.062Z,1
2022-08-19T09:25:10.180Z,1
2022-08-19T09:27:18.603Z,1
2022-08-19T09:29:18.323Z,1
2022-08-19T09:31:25.433Z,1
2022-08-19T09:33:30.222Z,1
2022-08-19T09:35:33.554Z,1
2022-08-19T09:37:59.608Z,1
2022-08-19T09:42:06.017Z,1
2022-08-19T09:44:13.143Z,1
2022-08-19T09:46:18.363Z,1
2022-08-19T09:48:23.676Z,1
2022-08-19T09:50:25.289Z,1
2022-08-19T09:54:34.927Z,1
2022-08-19T09:56:38.974Z,1
2022-08-19T10:00:51.024Z,1
2022-08-19T10:04:58.210Z,1
2022-08-19T10:11:28.566Z,1
2022-08-19T10:13:17.443Z,1
2022-08-19T10:15:29.088Z,1
2022-08-19T10:17:26.870Z,1
2022-08-19T10:19:29.554Z,1
2022-08-19T10:21:33.631Z,1
2022-08-19T10:23:37.638Z,1
2022-08-19T10:25:41.696Z,1
2022-08-19T10:27:51.341Z,1
2022-08-19T10:32:00.607Z,1
2022-08-19T10:33:00.398Z,1
2022-08-19T10:43:23.669Z,1
2022-08-19T10:45:28.195Z,99.6
2022-08-19T10:47:32.002Z,99.8
2022-08-19T10:49:35.767Z,1
2022-08-19T10:51:46.534Z,99.8
2022-08-19T10:53:43.832Z,99.8
2022-08-19T10:55:50.891Z,99.8
2022-08-19T10:58:02.346Z,99.8
2022-08-19T10:59:58.970Z,99.9
2022-08-19T11:02:02.996Z,99.9
2022-08-19T11:04:07.042Z,99.9
2022-08-19T11:06:11.060Z,99.9
2022-08-19T11:08:22.811Z,99.9
2022-08-19T11:10:22.479Z,1
2022-08-19T11:12:26.206Z,1
2022-08-19T11:14:30.536Z,99.9
2022-08-19T11:16:34.284Z,99.9
2022-08-19T11:18:38.317Z,99.9
2022-08-19T11:20:42.325Z,99.9
2022-08-19T11:22:46.378Z,99.9
2022-08-19T11:24:53.451Z,99.9
2022-08-19T11:26:57.499Z,99.9
2022-08-19T11:29:01.499Z,99.9
2022-08-19T11:30:05.150Z,99.9
2022-08-19T11:32:09.064Z,99.9
2022-08-19T11:34:13.078Z,99.9
2022-08-19T11:36:17.103Z,99.9
2022-08-19T11:38:24.207Z,99.9
2022-08-19T11:40:28.187Z,99.9
2022-08-19T11:42:32.219Z,99.9
2022-08-19T11:44:36.846Z,99.9
2022-08-19T11:46:40.245Z,99.9
2022-08-19T11:48:44.244Z,99.9
2022-08-19T11:50:48.270Z,99.9
2022-08-19T11:59:10.433Z,99.9
2022-08-19T12:03:15.385Z,99.9
2022-08-19T12:05:19.414Z,99.9
2022-08-19T12:07:26.419Z,99.9
2022-08-19T12:09:31.021Z,99.9
2022-08-19T12:13:38.409Z,99.9
2022-08-19T12:15:42.377Z,99.9
2022-08-19T12:17:46.399Z,99.9
2022-08-19T12:19:50.392Z,99.9
2022-08-19T12:21:57.419Z,99.9
2022-08-19T12:24:01.418Z,99.9
2022-08-19T12:26:05.417Z,99.9
2022-08-19T12:27:12.610Z,99.9
2022-08-19T12:35:28.006Z,99.9
2022-08-19T12:37:31.998Z,99.9
2022-08-19T12:39:36.072Z,99.9
2022-08-19T12:41:51.415Z,99.9
2022-08-19T12:43:44.025Z,99.9
2022-08-19T12:49:59.050Z,99.9
2022-08-19T12:52:03.063Z,99.9
2022-08-19T12:56:12.542Z,99.9
2022-08-19T12:58:15.098Z,99.9
2022-08-19T13:00:19.098Z,99.9
2022-08-19T13:02:23.134Z,99.9
2022-08-19T13:04:30.180Z,99.9
2022-08-19T13:06:34.213Z,99.9
2022-08-19T13:08:38.218Z,99.9
2022-08-19T13:10:42.224Z,99.9
2022-08-19T13:12:46.262Z,99.9
2022-08-19T13:14:50.286Z,99.9
2022-08-19T13:16:54.307Z,99.9
2022-08-19T13:19:01.401Z,99.9
2022-08-19T13:21:05.379Z,99.9
2022-08-19T13:23:09.400Z,99.9
2022-08-19T13:27:35.540Z,99.9
2022-08-19T13:29:39.569Z,99.9
2022-08-19T13:31:46.646Z,99.9
2022-08-19T13:33:50.655Z,99.9
2022-08-19T13:35:54.687Z,99.9
2022-08-19T13:37:58.698Z,99.9
2022-08-19T13:40:02.883Z,99.9
2022-08-19T13:42:06.740Z,99.9
2022-08-19T13:44:10.755Z,99.9
2022-08-19T13:46:17.848Z,99.9
2022-08-19T13:48:21.877Z,99.9
2022-08-19T13:50:25.852Z,99.9
2022-08-19T13:52:29.888Z,99.9
2022-08-19T13:54:33.895Z,99.9
2022-08-19T13:56:37.942Z,99.9
2022-08-19T13:58:41.941Z,99.9
2022-08-19T14:00:49.071Z,1
2022-08-19T14:02:53.043Z,1
2022-08-19T14:04:57.047Z,1
2022-08-19T14:07:01.089Z,1
2022-08-19T14:09:05.132Z,1
2022-08-19T14:11:09.152Z,1
2022-08-19T14:13:13.185Z,1
2022-08-19T14:15:20.288Z,1
2022-08-19T14:17:24.325Z,1
2022-08-19T14:19:30.111Z,1
2022-08-19T14:20:31.891Z,1
2022-08-19T14:22:35.933Z,1
2022-08-19T14:24:40.009Z,1
2022-08-19T14:26:44.071Z,1
2022-08-19T14:30:55.332Z,1
2022-08-19T14:32:59.290Z,1
2022-08-19T14:35:03.376Z,1
2022-08-19T14:37:07.438Z,1
2022-08-19T14:39:11.550Z,1
2022-08-19T14:41:15.586Z,1
2022-08-19T14:43:22.748Z,1
2022-08-19T14:45:26.783Z,1
2022-08-19T14:47:30.871Z,1
2022-08-19T14:49:43.029Z,1
2022-08-19T14:51:39.053Z,1
2022-08-19T14:53:43.134Z,1
2022-08-19T14:55:47.237Z,1
2022-08-19T14:57:54.464Z,1
2022-08-19T14:59:58.453Z,1
2022-08-19T15:02:34.081Z,1
2022-08-19T15:04:06.664Z,11.8
2022-08-19T15:06:12.797Z,87
2022-08-19T15:08:14.874Z,99.6
2022-08-19T15:10:18.959Z,99.8
2022-08-19T15:12:26.103Z,99.8
2022-08-19T15:14:30.199Z,99.8
2022-08-19T15:16:34.332Z,99.8
2022-08-19T15:17:45.037Z,99.8
2022-08-19T15:21:46.114Z,99.9
2022-08-19T15:23:50.233Z,99.9
2022-08-19T15:25:57.371Z,99.9
2022-08-19T15:30:05.646Z,98.4
2022-08-19T15:32:09.710Z,98.7
2022-08-19T15:34:13.833Z,98.7
2022-08-19T15:36:18.250Z,91.7
2022-08-19T15:38:22.029Z,91.2
2022-08-19T15:40:29.180Z,85.8
2022-08-19T15:42:33.291Z,76.1
2022-08-19T15:44:37.397Z,60
2022-08-19T15:46:41.517Z,92.6
2022-08-19T15:48:45.663Z,79.5
2022-08-19T15:50:51.311Z,95.2
2022-08-19T15:57:06.625Z,89
2022-08-19T15:59:10.739Z,67.7
2022-08-19T16:01:15.653Z,66.4
2022-08-19T16:03:18.979Z,61.9
2022-08-19T16:05:23.066Z,54.1
2022-08-19T16:07:27.164Z,53.3
2022-08-19T16:09:34.308Z,80.8
2022-08-19T16:11:39.650Z,56.7
2022-08-19T16:13:42.516Z,67.1
2022-08-19T16:14:46.081Z,66.7
2022-08-19T16:16:50.218Z,80.8
2022-08-19T16:18:54.276Z,57.5
2022-08-19T16:20:58.399Z,56.7
2022-08-19T16:23:05.520Z,59.4
2022-08-19T16:25:09.657Z,53.9
2022-08-19T16:27:13.760Z,55
2022-08-19T16:29:30.244Z,56.1
2022-08-19T16:31:21.967Z,51.8
2022-08-19T16:33:26.064Z,58.3
2022-08-19T16:35:30.179Z,59.7
2022-08-19T16:37:37.314Z,46.2
2022-08-19T16:41:45.511Z,53.8
2022-08-19T16:43:49.602Z,55.2
2022-08-19T16:45:53.714Z,51.8
2022-08-19T16:47:57.813Z,51.2
2022-08-19T16:52:09.041Z,21.5
2022-08-19T16:54:13.143Z,22.6
2022-08-19T16:56:17.227Z,20
2022-08-19T16:58:21.319Z,13.5
2022-08-19T17:02:30.852Z,13.8
2022-08-19T17:04:33.596Z,17.7
2022-08-19T17:06:40.737Z,17.8
2022-08-19T17:08:48.615Z,27.5
2022-08-19T17:11:16.523Z,27.7
2022-08-19T17:13:16.893Z,35.3
2022-08-19T17:15:20.989Z,36
2022-08-19T17:17:28.908Z,43.6
2022-08-19T17:19:32.211Z,44.4
2022-08-19T17:21:36.312Z,47.9
2022-08-19T17:23:43.513Z,58.5
2022-08-19T17:25:44.508Z,66
2022-08-19T17:27:48.648Z,72.9
2022-08-19T17:29:52.780Z,78.4
2022-08-19T17:36:08.052Z,82.1
2022-08-19T17:40:16.307Z,69.6
2022-08-19T17:42:20.332Z,26
2022-08-19T17:44:24.458Z,1
2022-08-19T17:46:28.557Z,1.7
2022-08-19T17:48:35.669Z,46.6
2022-08-19T17:50:39.767Z,49.2
2022-08-19T17:54:47.951Z,85.3
2022-08-19T17:56:52.041Z,95.7
2022-08-19T17:58:59.892Z,96.1
2022-08-19T18:01:00.305Z,96.8
2022-08-19T18:03:07.386Z,92.3
2022-08-19T18:07:15.565Z,91.9
2022-08-19T18:08:19.161Z,91.8
2022-08-19T18:10:23.293Z,91.5
2022-08-19T18:12:27.373Z,91.5
2022-08-19T18:18:42.685Z,97
2022-08-19T18:20:46.789Z,96.5
2022-08-19T18:22:50.907Z,99.6
2022-08-19T18:24:55.006Z,99.2
2022-08-19T18:26:59.106Z,99.3
2022-08-19T18:29:03.216Z,99.4
2022-08-19T18:31:10.354Z,99.5
2022-08-19T18:33:14.471Z,99.8
2022-08-19T18:35:18.607Z,99.9
2022-08-19T18:37:22.698Z,99.9
2022-08-19T18:39:26.794Z,99.9
2022-08-19T18:41:30.894Z,99.9
2022-08-19T18:43:35.077Z,99.9
2022-08-19T18:45:43.679Z,99.9
2022-08-19T18:47:46.237Z,99.9
2022-08-19T18:49:50.366Z,99.9
2022-08-19T18:56:02.692Z,99.9
2022-08-19T18:58:06.785Z,99.9
2022-08-19T19:04:22.150Z,99.9
2022-08-19T19:05:25.694Z,99.9
2022-08-19T19:07:29.807Z,99.9
2022-08-19T19:09:33.908Z,99.9
2022-08-19T19:11:38.021Z,99.9
2022-08-19T19:13:45.152Z,99.9
2022-08-19T19:15:49.267Z,99.9
2022-08-19T19:17:53.540Z,99.9
2022-08-19T19:19:57.459Z,99.9
2022-08-19T19:22:01.571Z,99.9
2022-08-19T19:24:05.761Z,99.9
2022-08-19T19:26:09.789Z,99.9
2022-08-19T19:28:17.002Z,99.9
2022-08-19T19:32:25.151Z,99.9
2022-08-19T19:36:33.353Z,99.9
2022-08-19T19:38:37.475Z,99.9
2022-08-19T19:40:41.571Z,99.9
2022-08-19T19:44:52.827Z,99.9
2022-08-19T19:55:13.351Z,99.9
2022-08-19T19:59:24.580Z,1
2022-08-19T20:02:32.265Z,1
2022-08-19T20:04:36.376Z,1
2022-08-19T20:21:12.290Z,71.3
2022-08-19T20:25:23.514Z,99.8
2022-08-19T20:31:37.939Z,99.8
2022-08-19T20:35:44.052Z,99.9
2022-08-19T20:44:03.533Z,99.9
2022-08-19T20:46:07.627Z,99.9
2022-08-19T20:48:11.736Z,68.8
2022-08-19T20:50:15.831Z,68.4
2022-08-19T20:52:19.944Z,63
2022-08-19T20:54:27.097Z,67.8
2022-08-19T20:58:35.299Z,38.8
2022-08-19T21:19:39.989Z,10.6
2022-08-19T21:23:51.241Z,37.7
2022-08-19T21:27:59.450Z,13.8
2022-08-19T21:30:03.578Z,1
2022-08-19T21:34:11.774Z,1
2022-08-19T21:36:18.921Z,57.9
2022-08-19T21:42:31.264Z,1
2022-08-19T21:44:35.370Z,1
2022-08-19T21:46:39.484Z,1
2022-08-19T21:55:00.457Z,67.2
2022-08-19T21:56:04.057Z,18.3
2022-08-19T21:58:08.135Z,17.7
2022-08-19T22:00:12.294Z,12.2
2022-08-19T22:02:20.863Z,1
2022-08-19T22:04:23.497Z,1
2022-08-19T22:08:31.727Z,1
2022-08-19T22:10:35.862Z,1
2022-08-19T22:12:39.973Z,1
2022-08-19T22:14:44.073Z,1
2022-08-19T22:16:48.223Z,11.5
2022-08-19T22:18:55.336Z,10.4
2022-08-19T22:20:59.453Z,1
2022-08-19T22:23:03.577Z,1
2022-08-19T22:29:17.165Z,1
2022-08-19T22:31:20.030Z,1
2022-08-19T22:35:31.266Z,1
2022-08-19T22:39:39.540Z,1
2022-08-19T22:45:51.820Z,3.5
2022-08-19T22:47:58.958Z,1
2022-08-19T22:50:03.079Z,1
2022-08-19T22:52:07.193Z,10.1
2022-08-19T22:53:10.774Z,1.4
2022-08-19T22:55:14.882Z,1
2022-08-19T22:57:18.987Z,12.1
2022-08-19T22:59:23.393Z,63.1
2022-08-19T23:01:30.857Z,33.7
2022-08-19T23:03:34.348Z,53.4
2022-08-19T23:05:38.437Z,46.3
2022-08-19T23:07:42.557Z,67
2022-08-19T23:09:46.682Z,67.2
2022-08-19T23:11:50.782Z,67.2
2022-08-19T23:13:54.882Z,67.5
2022-08-19T23:16:02.026Z,71.7
2022-08-19T23:18:06.120Z,97.1
2022-08-19T23:20:10.245Z,98.1
2022-08-19T23:22:14.356Z,68.4
2022-08-19T23:24:18.468Z,33.3
2022-08-19T23:26:22.577Z,1
2022-08-19T23:30:33.806Z,1
2022-08-19T23:34:42.037Z,1
2022-08-19T23:36:46.138Z,1
2022-08-19T23:38:50.259Z,99.6
2022-08-19T23:40:54.357Z,99.8
2022-08-19T23:42:58.486Z,99.8
2022-08-19T23:47:09.721Z,1
2022-08-19T23:49:13.883Z,1
2022-08-19T23:58:36.836Z,1
